createdAt,value
2018-12-13T00:00:47.858Z,98.65
2018-12-13T00:03:20.490Z,97.83
2018-12-13T00:05:53.535Z,98.17
2018-12-13T00:08:26.194Z,97.59
2018-12-13T00:10:58.947Z,98.53
2018-12-13T00:13:31.743Z,98.01
2018-12-13T00:16:02.529Z,98.03
2018-12-13T00:18:35.511Z,98.21
2018-12-13T00:21:12.621Z,98.13
2018-12-13T00:23:45.434Z,98.76
2018-12-13T00:27:04.565Z,98.04
2018-12-13T00:29:40.787Z,98.62
2018-12-13T00:32:26.708Z,98.15
2018-12-13T00:34:59.150Z,98.25
2018-12-13T00:37:28.047Z,98.85
2018-12-13T00:40:00.639Z,98.75
2018-12-13T00:42:37.239Z,98.09
2018-12-13T00:45:13.355Z,98.03
2018-12-13T00:47:45.930Z,98.15
2018-12-13T00:50:18.882Z,98.23
2018-12-13T00:52:55.832Z,98.75
2018-12-13T00:55:32.770Z,98.69
2018-12-13T00:58:05.301Z,98.06
2018-12-13T01:00:38.439Z,98.60
2018-12-13T01:03:07.543Z,97.87
2018-12-13T01:05:38.521Z,98.20
2018-12-13T01:08:15.421Z,98.69
2018-12-13T01:10:48.511Z,98.26
2018-12-13T01:13:25.763Z,98.57
2018-12-13T01:16:02.692Z,97.79
2018-12-13T01:18:35.572Z,98.06
2018-12-13T01:21:08.545Z,98.02
2018-12-13T01:23:41.365Z,98.87
2018-12-13T01:26:18.431Z,98.12
2018-12-13T01:28:50.986Z,97.98
2018-12-13T01:31:24.543Z,97.87
2018-12-13T01:33:56.978Z,97.86
2018-12-13T01:36:30.051Z,97.95
2018-12-13T01:39:02.685Z,97.89
2018-12-13T01:41:35.558Z,98.17
2018-12-13T01:44:21.206Z,98.41
2018-12-13T01:46:57.988Z,97.85
2018-12-13T01:49:37.213Z,98.68
2018-12-13T01:52:19.966Z,98.08
2018-12-13T01:54:52.927Z,98.78
2018-12-13T01:57:29.445Z,98.05
2018-12-13T02:00:20.063Z,97.67
2018-12-13T02:03:23.259Z,97.66
2018-12-13T02:06:04.710Z,97.80
2018-12-13T02:09:20.619Z,96.96
2018-12-13T02:11:56.739Z,97.79
2018-12-13T02:14:29.423Z,97.99
2018-12-13T02:20:29.894Z,97.15
2018-12-13T02:23:05.120Z,97.60
2018-12-13T02:25:42.388Z,97.82
2018-12-13T02:28:15.456Z,97.82
2018-12-13T02:30:58.957Z,97.44
2018-12-13T02:33:35.547Z,97.58
2018-12-13T02:36:08.323Z,97.39
2018-12-13T02:38:41.085Z,97.88
2018-12-13T02:41:14.016Z,97.49
2018-12-13T02:43:46.931Z,98.19
2018-12-13T02:46:19.844Z,98.29
2018-12-13T02:49:06.353Z,98.35
2018-12-13T02:51:38.518Z,98.29
2018-12-13T02:54:09.551Z,97.85
2018-12-13T02:56:46.579Z,98.20
2018-12-13T02:59:23.535Z,98.53
2018-12-13T03:01:56.503Z,99.11
2018-12-13T03:04:29.382Z,99.00
2018-12-13T03:07:13.800Z,98.34
2018-12-13T03:09:41.698Z,98.74
2018-12-13T03:12:14.668Z,98.18
2018-12-13T03:15:37.187Z,97.99
2018-12-13T03:18:09.663Z,98.43
2018-12-13T03:20:46.318Z,98.81
2018-12-13T03:23:19.137Z,99.11
2018-12-13T03:29:12.646Z,99.44
2018-12-13T03:31:49.628Z,99.02
2018-12-13T03:34:22.438Z,99.44
2018-12-13T03:36:55.035Z,99.40
2018-12-13T03:39:32.291Z,99.17
2018-12-13T03:42:05.351Z,99.38
2018-12-13T03:44:42.282Z,100.00
2018-12-13T03:47:13.174Z,99.19
2018-12-13T03:49:42.243Z,98.99
2018-12-13T03:52:32.350Z,99.63
2018-12-13T03:55:04.553Z,100.00
2018-12-13T03:57:37.492Z,100.00
2018-12-13T04:00:10.747Z,100.00
2018-12-13T04:02:41.062Z,99.65
2018-12-13T04:05:14.030Z,100.00
2018-12-13T04:07:50.762Z,99.24
2018-12-13T04:10:41.050Z,99.85
2018-12-13T04:13:17.849Z,100.00
2018-12-13T04:15:54.990Z,100.00
2018-12-13T04:18:31.669Z,100.00
2018-12-13T04:21:04.535Z,99.78
2018-12-13T04:23:40.675Z,99.83
2018-12-13T04:26:11.504Z,99.87
2018-12-13T04:28:44.321Z,100.00
2018-12-13T04:31:17.155Z,99.78
2018-12-13T04:33:53.435Z,100.00
2018-12-13T04:36:30.255Z,99.95
2018-12-13T04:39:04.715Z,99.96
2018-12-13T04:41:41.241Z,99.41
2018-12-13T04:44:14.163Z,99.38
2018-12-13T04:46:50.987Z,99.72
2018-12-13T04:49:23.212Z,99.75
2018-12-13T04:51:55.444Z,99.52
2018-12-13T04:54:32.512Z,100.00
2018-12-13T04:57:09.744Z,99.97
2018-12-13T04:59:42.516Z,100.00
2018-12-13T05:02:15.494Z,99.92
2018-12-13T05:04:48.493Z,100.00
2018-12-13T05:07:25.481Z,99.89
2018-12-13T05:10:02.461Z,100.00
2018-12-13T05:12:35.341Z,100.00
2018-12-13T05:15:12.257Z,100.00
2018-12-13T05:17:44.531Z,100.00
2018-12-13T05:20:17.358Z,100.00
2018-12-13T05:22:50.435Z,100.00
2018-12-13T05:25:27.293Z,100.00
2018-12-13T05:28:04.350Z,99.89
2018-12-13T05:30:37.271Z,99.99
2018-12-13T05:33:10.464Z,99.84
2018-12-13T05:35:43.367Z,100.00
2018-12-13T05:38:19.492Z,99.58
2018-12-13T05:40:52.503Z,99.32
2018-12-13T05:43:25.963Z,99.58
2018-12-13T05:45:56.439Z,99.92
2018-12-13T05:48:33.167Z,99.87
2018-12-13T05:51:06.257Z,99.36
2018-12-13T05:53:39.391Z,99.20
2018-12-13T05:59:51.580Z,98.72
2018-12-13T06:02:24.613Z,98.85
2018-12-13T06:05:00.835Z,98.91
2018-12-13T06:07:37.499Z,99.05
2018-12-13T06:10:10.442Z,99.37
2018-12-13T06:12:47.271Z,99.39
2018-12-13T06:15:20.324Z,99.46
2018-12-13T06:17:53.221Z,99.59
2018-12-13T06:20:26.498Z,99.68
2018-12-13T06:22:59.438Z,99.88
2018-12-13T06:25:36.327Z,99.50
2018-12-13T06:28:07.405Z,99.65
2018-12-13T06:30:40.182Z,99.51
2018-12-13T06:33:12.966Z,99.73
2018-12-13T06:35:45.827Z,99.89
2018-12-13T06:38:18.619Z,99.79
2018-12-13T06:40:51.405Z,99.67
2018-12-13T06:43:28.499Z,99.87
2018-12-13T06:46:01.367Z,99.06
2018-12-13T06:48:32.439Z,99.33
2018-12-13T06:51:05.439Z,99.18
2018-12-13T06:53:38.462Z,99.21
2018-12-13T06:56:11.575Z,99.37
2018-12-13T06:58:44.355Z,100.00
2018-12-13T07:01:17.579Z,100.00
2018-12-13T07:03:48.558Z,100.00
2018-12-13T07:06:21.669Z,99.79
2018-12-13T07:08:54.515Z,99.55
2018-12-13T07:11:27.583Z,99.30
2018-12-13T07:13:58.583Z,99.36
2018-12-13T07:16:35.568Z,99.38
2018-12-13T07:19:08.269Z,99.22
2018-12-13T07:21:45.251Z,99.30
2018-12-13T07:24:18.022Z,99.28
2018-12-13T07:26:51.182Z,99.28
2018-12-13T07:29:24.055Z,99.13
2018-12-13T07:31:56.218Z,99.25
2018-12-13T07:34:32.444Z,99.24
2018-12-13T07:37:05.515Z,99.30
2018-12-13T07:39:38.139Z,99.43
2018-12-13T07:42:14.860Z,99.49
2018-12-13T07:44:47.917Z,99.79
2018-12-13T07:47:20.851Z,99.84
2018-12-13T07:49:57.074Z,99.78
2018-12-13T07:52:30.207Z,99.87
2018-12-13T07:55:02.983Z,100.00
2018-12-13T07:57:36.055Z,100.00
2018-12-13T08:00:13.207Z,100.00
2018-12-13T08:02:45.932Z,100.00
2018-12-13T08:05:36.129Z,100.00
2018-12-13T08:08:12.451Z,100.00
2018-12-13T08:10:50.137Z,100.00
2018-12-13T08:13:49.632Z,100.00
2018-12-13T08:16:23.599Z,100.00
2018-12-13T08:18:56.112Z,100.00
2018-12-13T08:21:29.421Z,100.00
2018-12-13T08:24:02.519Z,100.00
2018-12-13T08:26:34.858Z,100.00
2018-12-13T08:29:07.765Z,100.00
2018-12-13T08:31:40.606Z,100.00
2018-12-13T08:34:11.939Z,100.00
2018-12-13T08:36:44.862Z,100.00
2018-12-13T08:39:17.896Z,100.00
2018-12-13T08:41:50.796Z,100.00
2018-12-13T08:44:23.900Z,100.00
2018-12-13T08:46:56.815Z,100.00
2018-12-13T08:49:31.869Z,100.00
2018-12-13T08:52:05.047Z,100.00
2018-12-13T08:54:38.059Z,100.00
2018-12-13T08:57:11.187Z,100.00
2018-12-13T08:59:43.523Z,100.00
2018-12-13T09:02:16.651Z,100.00
2018-12-13T09:04:53.615Z,100.00
2018-12-13T09:07:26.573Z,100.00
2018-12-13T09:32:53.647Z,100.00
2018-12-13T09:35:26.342Z,100.00
2018-12-13T09:38:02.803Z,100.00
2018-12-13T09:40:39.330Z,100.00
2018-12-13T09:43:11.820Z,100.00
2018-12-13T09:45:44.431Z,100.00
2018-12-13T09:48:17.510Z,100.00
2018-12-13T09:50:50.927Z,100.00
2018-12-13T09:53:27.792Z,100.00
2018-12-13T09:56:01.042Z,100.00
2018-12-13T09:58:33.906Z,100.00
2018-12-13T10:01:06.999Z,100.00
2018-12-13T10:03:43.824Z,100.00
2018-12-13T10:06:16.917Z,99.82
2018-12-13T10:08:49.178Z,99.95
2018-12-13T10:11:21.948Z,100.00
2018-12-13T10:13:54.943Z,99.98
2018-12-13T10:16:27.523Z,99.39
2018-12-13T10:19:05.779Z,99.65
2018-12-13T10:21:38.516Z,99.95
2018-12-13T10:24:10.784Z,98.89
2018-12-13T10:26:43.856Z,99.34
2018-12-13T10:29:16.639Z,98.99
2018-12-13T10:31:49.677Z,99.04
2018-12-13T10:36:53.834Z,98.55
2018-12-13T10:39:27.654Z,97.24
2018-12-13T10:42:00.504Z,99.16
2018-12-13T10:44:36.599Z,98.38
2018-12-13T10:47:12.839Z,96.28
2018-12-13T10:49:46.058Z,98.24
2018-12-13T10:52:20.126Z,98.19
2018-12-13T10:54:53.139Z,97.96
2018-12-13T10:57:26.296Z,97.99
2018-12-13T11:00:00.305Z,96.37
2018-12-13T11:02:45.550Z,96.36
2018-12-13T11:05:18.419Z,97.47
2018-12-13T11:07:55.783Z,96.81
2018-12-13T11:10:28.731Z,96.41
2018-12-13T11:13:05.316Z,95.22
2018-12-13T11:15:37.602Z,96.07
2018-12-13T11:18:13.082Z,96.52
2018-12-13T11:20:47.155Z,95.05
2018-12-13T11:23:20.049Z,94.99
2018-12-13T11:25:57.055Z,95.54
2018-12-13T11:28:48.564Z,93.72
2018-12-13T11:31:25.043Z,95.37
2018-12-13T11:34:02.354Z,93.74
2018-12-13T11:36:34.875Z,95.46
2018-12-13T11:39:07.735Z,95.56
2018-12-13T11:51:45.234Z,93.86
2018-12-13T11:54:40.100Z,93.05
2018-12-13T11:57:12.643Z,93.52
2018-12-13T11:59:46.277Z,93.96
2018-12-13T12:02:24.033Z,92.30
2018-12-13T12:04:57.937Z,90.46
2018-12-13T12:07:30.924Z,91.09
2018-12-13T12:10:01.882Z,91.68
2018-12-13T12:12:34.967Z,91.67
2018-12-13T12:15:08.390Z,90.76
2018-12-13T12:17:41.116Z,91.13
2018-12-13T12:20:13.442Z,89.42
2018-12-13T12:22:46.687Z,88.35
2018-12-13T12:25:19.798Z,86.49
2018-12-13T12:27:52.464Z,86.91
2018-12-13T12:30:25.621Z,87.52
2018-12-13T12:32:58.380Z,87.82
2018-12-13T12:35:31.468Z,86.98
2018-12-13T12:38:03.651Z,85.98
2018-12-13T12:40:37.119Z,85.49
2018-12-13T12:43:13.987Z,86.15
2018-12-13T12:45:46.915Z,86.09
2018-12-13T12:48:20.003Z,84.99
2018-12-13T12:50:52.360Z,84.36
2018-12-13T13:03:32.310Z,83.52
2018-12-13T13:06:05.220Z,84.42
2018-12-13T13:08:42.425Z,84.75
2018-12-13T13:11:15.676Z,84.76
2018-12-13T13:13:48.410Z,84.21
2018-12-13T13:16:21.567Z,84.51
2018-12-13T13:18:53.878Z,84.76
2018-12-13T13:21:28.779Z,83.99
2018-12-13T13:24:01.424Z,83.78
2018-12-13T13:26:38.519Z,85.08
2018-12-13T13:29:11.795Z,85.29
2018-12-13T13:31:45.511Z,85.79
2018-12-13T13:34:18.722Z,84.85
2018-12-13T13:36:51.668Z,85.25
2018-12-13T13:39:23.883Z,86.07
2018-12-13T13:41:58.232Z,85.30
2018-12-13T13:44:37.554Z,85.07
2018-12-13T13:47:10.204Z,85.76
2018-12-13T13:49:42.422Z,86.16
2018-12-13T13:52:15.689Z,85.46
2018-12-13T13:54:48.806Z,85.55
2018-12-13T13:57:21.850Z,85.41
2018-12-13T13:59:54.687Z,86.21
2018-12-13T14:02:27.642Z,86.21
2018-12-13T14:05:00.616Z,85.90
2018-12-13T14:07:32.779Z,86.75
2018-12-13T14:10:05.354Z,86.07
2018-12-13T14:12:39.483Z,86.61
2018-12-13T14:15:12.591Z,87.33
2018-12-13T14:17:45.608Z,87.44
2018-12-13T14:20:17.886Z,87.42
2018-12-13T14:22:51.183Z,86.87
2018-12-13T14:25:24.039Z,87.32
2018-12-13T14:27:57.067Z,87.49
2018-12-13T14:30:29.286Z,87.46
2018-12-13T14:33:01.579Z,87.47
2018-12-13T14:35:34.780Z,88.14
2018-12-13T14:38:07.711Z,87.83
2018-12-13T14:40:40.726Z,88.69
2018-12-13T14:43:13.800Z,88.37
2018-12-13T14:45:46.903Z,88.51
2018-12-13T14:48:23.886Z,88.41
2018-12-13T14:51:00.289Z,88.02
2018-12-13T14:53:32.734Z,88.18
2018-12-13T14:56:05.752Z,88.74
2018-12-13T14:58:38.636Z,88.60
2018-12-13T15:01:12.039Z,88.11
2018-12-13T15:03:44.968Z,88.43
2018-12-13T15:13:52.055Z,89.05
2018-12-13T15:16:24.851Z,89.37
2018-12-13T15:19:01.078Z,89.04
2018-12-13T15:21:39.270Z,89.63
2018-12-13T15:24:12.283Z,89.83
2018-12-13T15:26:45.308Z,89.92
2018-12-13T15:29:18.007Z,90.21
2018-12-13T15:31:59.310Z,90.51
2018-12-13T15:34:30.507Z,90.54
2018-12-13T15:37:04.666Z,90.00
2018-12-13T15:39:37.540Z,89.92
2018-12-13T15:42:10.594Z,90.43
2018-12-13T15:44:46.423Z,90.40
2018-12-13T15:47:21.809Z,90.71
2018-12-13T15:49:55.200Z,90.00
2018-12-13T15:52:29.507Z,90.66
2018-12-13T15:55:00.720Z,90.77
2018-12-13T15:57:37.744Z,90.32
2018-12-13T16:00:11.699Z,91.08
2018-12-13T16:02:51.898Z,91.01
2018-12-13T16:05:24.841Z,90.56
2018-12-13T16:08:02.460Z,90.95
2018-12-13T16:10:37.583Z,91.06
2018-12-13T16:13:10.847Z,90.89
2018-12-13T16:15:52.519Z,91.10
2018-12-13T16:18:25.119Z,90.55
2018-12-13T16:20:58.039Z,90.42
2018-12-13T16:23:30.979Z,90.31
2018-12-13T16:26:07.899Z,90.26
2018-12-13T16:28:40.848Z,91.10
2018-12-13T16:31:17.621Z,90.54
2018-12-13T16:33:50.703Z,90.90
2018-12-13T16:36:23.442Z,90.40
2018-12-13T16:38:56.479Z,90.58
2018-12-13T16:41:29.759Z,90.80
2018-12-13T16:44:02.774Z,90.61
2018-12-13T16:46:39.876Z,91.00
2018-12-13T16:49:10.703Z,90.45
2018-12-13T16:51:44.375Z,90.70
2018-12-13T16:54:21.173Z,91.11
2018-12-13T16:56:54.615Z,90.47
2018-12-13T16:59:25.477Z,91.70
2018-12-13T17:02:02.355Z,91.33
2018-12-13T17:04:38.982Z,90.60
2018-12-13T17:07:11.994Z,91.39
2018-12-13T17:09:45.075Z,90.61
2018-12-13T17:12:18.057Z,90.47
2018-12-13T17:14:51.525Z,91.03
2018-12-13T17:17:24.467Z,90.88
2018-12-13T17:20:01.803Z,90.89
2018-12-13T17:22:36.344Z,90.89
2018-12-13T17:25:13.219Z,91.20
2018-12-13T17:27:50.159Z,91.36
2018-12-13T17:30:23.204Z,90.99
2018-12-13T17:32:55.162Z,91.63
2018-12-13T17:35:28.462Z,91.33
2018-12-13T17:38:05.350Z,91.08
2018-12-13T17:40:38.403Z,91.57
2018-12-13T17:43:11.343Z,91.31
2018-12-13T17:45:48.173Z,91.02
2018-12-13T17:48:25.051Z,90.87
2018-12-13T17:50:58.702Z,90.90
2018-12-13T17:53:37.124Z,91.33
2018-12-13T17:56:10.112Z,91.53
2018-12-13T17:58:43.195Z,91.52
2018-12-13T18:01:16.427Z,90.76
2018-12-13T18:03:48.588Z,90.99
2018-12-13T18:06:21.803Z,91.28
2018-12-13T18:08:54.719Z,91.37
2018-12-13T18:11:31.854Z,91.61
2018-12-13T18:14:08.682Z,91.21
2018-12-13T18:16:43.502Z,91.89
2018-12-13T18:19:16.731Z,91.58
2018-12-13T18:21:49.802Z,91.58
2018-12-13T18:24:24.163Z,91.87
2018-12-13T18:27:01.868Z,91.54
2018-12-13T18:29:38.735Z,91.90
2018-12-13T18:32:11.846Z,91.46
2018-12-13T18:34:49.304Z,91.52
2018-12-13T18:37:19.390Z,92.28
2018-12-13T18:39:48.966Z,91.99
2018-12-13T18:42:18.482Z,91.84
2018-12-13T18:44:48.884Z,91.81
2018-12-13T18:47:18.403Z,92.53
2018-12-13T18:49:48.036Z,92.54
2018-12-13T18:52:17.543Z,92.08
2018-12-13T18:54:47.153Z,92.45
2018-12-13T18:57:17.119Z,92.57
2018-12-13T18:59:46.591Z,92.62
2018-12-13T19:02:16.107Z,92.59
2018-12-13T19:04:45.578Z,92.46
2018-12-13T19:07:15.200Z,92.16
2018-12-13T19:09:44.710Z,92.73
2018-12-13T19:12:14.314Z,92.03
2018-12-13T19:14:44.011Z,92.79
2018-12-13T19:17:13.579Z,92.57
2018-12-13T19:19:43.240Z,92.82
2018-12-13T19:22:12.737Z,92.86
2018-12-13T19:24:42.427Z,92.87
2018-12-13T19:27:11.899Z,93.44
2018-12-13T19:29:41.897Z,93.39
2018-12-13T19:32:11.477Z,92.31
2018-12-13T19:34:41.161Z,92.77
2018-12-13T19:37:10.699Z,92.33
2018-12-13T19:39:40.403Z,92.39
2018-12-13T19:42:09.991Z,92.83
2018-12-13T19:44:39.701Z,93.71
2018-12-13T19:47:09.286Z,93.25
2018-12-13T19:49:38.999Z,93.17
2018-12-13T19:52:08.624Z,93.54
2018-12-13T19:54:38.271Z,93.82
2018-12-13T19:57:07.713Z,93.72
2018-12-13T19:59:38.726Z,94.38
2018-12-13T20:02:08.463Z,94.69
2018-12-13T20:04:38.147Z,94.70
2018-12-13T20:07:07.691Z,94.36
2018-12-13T20:09:38.627Z,94.20
2018-12-13T20:12:08.226Z,95.35
2018-12-13T20:14:37.838Z,95.97
2018-12-13T20:17:07.977Z,95.32
2018-12-13T20:19:37.638Z,95.72
2018-12-13T20:22:07.139Z,95.86
2018-12-13T20:24:37.347Z,95.10
2018-12-13T20:27:06.941Z,95.29
2018-12-13T20:29:36.843Z,95.25
2018-12-13T20:32:06.401Z,95.50
2018-12-13T20:34:35.932Z,95.90
2018-12-13T20:37:05.522Z,95.29
2018-12-13T20:39:35.429Z,95.68
2018-12-13T20:42:04.943Z,94.89
2018-12-13T20:44:34.392Z,95.90
2018-12-13T20:47:03.935Z,95.69
2018-12-13T20:49:34.413Z,95.75
2018-12-13T20:52:03.967Z,95.54
2018-12-13T20:54:33.582Z,94.82
2018-12-13T20:57:03.223Z,95.11
2018-12-13T20:59:32.686Z,95.37
2018-12-13T21:02:02.318Z,95.34
2018-12-13T21:04:31.829Z,95.83
2018-12-13T21:07:06.571Z,95.65
2018-12-13T21:09:36.015Z,95.73
2018-12-13T21:12:05.691Z,95.68
2018-12-13T21:14:35.293Z,95.23
2018-12-13T21:17:04.823Z,95.71
2018-12-13T21:19:34.395Z,95.26
2018-12-13T21:22:03.984Z,95.65
2018-12-13T21:24:33.603Z,94.83
2018-12-13T21:27:03.633Z,94.93
2018-12-13T21:29:33.193Z,95.44
2018-12-13T21:32:02.722Z,94.50
2018-12-13T21:34:32.137Z,95.38
2018-12-13T21:37:02.767Z,95.30
2018-12-13T21:39:32.259Z,94.66
2018-12-13T21:42:01.955Z,94.85
2018-12-13T21:44:31.415Z,95.02
2018-12-13T21:47:00.934Z,95.03
2018-12-13T21:49:30.347Z,95.33
2018-12-13T21:51:59.831Z,95.08
2018-12-13T21:54:29.299Z,95.44
2018-12-13T21:56:58.855Z,95.12
2018-12-13T21:59:28.195Z,94.61
2018-12-13T22:01:57.533Z,95.44
2018-12-13T22:04:26.727Z,95.51
2018-12-13T22:06:55.947Z,95.05
2018-12-13T22:09:25.191Z,95.25
2018-12-13T22:11:54.352Z,95.26
2018-12-13T22:14:24.643Z,94.80
2018-12-13T22:16:53.712Z,94.69
2018-12-13T22:19:22.811Z,95.49
2018-12-13T22:21:51.947Z,94.86
2018-12-13T22:24:21.335Z,95.86
2018-12-13T22:26:50.498Z,95.75
2018-12-13T22:29:19.633Z,96.37
2018-12-13T22:31:48.712Z,95.96
2018-12-13T22:34:17.915Z,95.82
2018-12-13T22:36:47.193Z,96.62
2018-12-13T22:39:16.615Z,96.47
2018-12-13T22:41:45.827Z,96.65
2018-12-13T22:44:15.106Z,95.95
2018-12-13T22:46:44.347Z,96.28
2018-12-13T22:49:13.592Z,96.09
2018-12-13T22:51:42.648Z,96.05
2018-12-13T22:54:11.815Z,95.76
2018-12-13T22:56:40.934Z,96.26
2018-12-13T22:59:10.151Z,96.74
2018-12-13T23:01:39.333Z,96.54
2018-12-13T23:04:08.327Z,96.92
2018-12-13T23:06:37.582Z,96.68
2018-12-13T23:09:08.115Z,96.37
2018-12-13T23:11:37.223Z,96.50
2018-12-13T23:14:06.534Z,96.94
2018-12-13T23:16:35.699Z,96.33
2018-12-13T23:19:04.731Z,96.50
2018-12-13T23:21:34.059Z,96.68
2018-12-13T23:24:03.241Z,97.48
2018-12-13T23:26:32.340Z,97.28
2018-12-13T23:29:01.459Z,96.81
2018-12-13T23:31:30.461Z,97.08
2018-12-13T23:33:59.664Z,97.14
2018-12-13T23:36:28.776Z,97.24
2018-12-13T23:38:57.767Z,97.40
2018-12-13T23:41:26.742Z,96.98
2018-12-13T23:43:55.826Z,97.14
2018-12-13T23:46:24.913Z,96.95
2018-12-13T23:48:53.996Z,96.45
2018-12-13T23:51:23.029Z,96.11
2018-12-13T23:53:52.278Z,97.00
2018-12-13T23:56:21.522Z,96.92
2018-12-13T23:58:50.919Z,96.42
